createdAt,value
2017-07-10T05:32:07.094Z,45
2017-07-10T05:32:32.566Z,45
2017-07-10T05:32:58.041Z,45
2017-07-10T05:33:23.524Z,45
2017-07-10T05:33:48.990Z,45
2017-07-10T05:34:14.442Z,45
2017-07-10T05:34:39.889Z,45
2017-07-10T05:35:05.343Z,45
2017-07-10T05:35:30.807Z,50
2017-07-10T05:35:56.264Z,50
2017-07-10T05:36:21.742Z,50
2017-07-10T05:36:47.208Z,50
2017-07-10T05:37:12.679Z,50
2017-07-10T05:37:38.150Z,50
2017-07-10T05:38:03.634Z,50
2017-07-10T05:38:29.079Z,50
2017-07-10T05:38:54.541Z,55
2017-07-10T05:39:20.016Z,55
2017-07-10T05:39:45.511Z,55
2017-07-10T05:40:10.980Z,55
2017-07-10T05:40:36.423Z,55
2017-07-10T05:41:01.895Z,55
2017-07-10T05:41:27.348Z,60
2017-07-10T05:41:52.810Z,60
2017-07-10T05:42:18.268Z,60
2017-07-10T05:42:43.726Z,60
2017-07-10T05:43:09.200Z,60
2017-07-10T05:43:34.656Z,60
2017-07-10T05:44:00.115Z,60
2017-07-10T05:44:25.587Z,60
2017-07-10T05:44:51.048Z,60
2017-07-10T05:45:16.499Z,60
2017-07-10T05:45:41.970Z,60
2017-07-10T05:46:07.432Z,60
2017-07-10T05:46:32.906Z,60
2017-07-10T05:46:58.403Z,60
2017-07-10T05:47:23.825Z,60
2017-07-10T05:47:49.380Z,60
2017-07-10T05:48:14.838Z,60
2017-07-10T05:48:40.218Z,60
2017-07-10T05:49:05.692Z,60
2017-07-10T05:49:31.158Z,65
2017-07-10T05:49:56.630Z,65
2017-07-10T05:50:22.111Z,65
2017-07-10T05:50:47.615Z,65
2017-07-10T05:51:13.095Z,65
2017-07-10T05:51:38.551Z,65
2017-07-10T05:52:04.044Z,65
2017-07-10T05:52:29.516Z,65
2017-07-10T05:52:55.013Z,65
2017-07-10T05:53:20.467Z,65
2017-07-10T05:53:45.958Z,65
2017-07-10T05:54:11.421Z,65
2017-07-10T05:54:36.894Z,65
2017-07-10T05:55:02.368Z,65
2017-07-10T05:55:27.822Z,65
2017-07-10T05:55:53.290Z,65
2017-07-10T05:56:18.731Z,65
2017-07-10T05:56:44.191Z,65
2017-07-10T05:57:09.662Z,65
2017-07-10T05:57:35.144Z,65
2017-07-10T05:58:00.613Z,65
2017-07-10T05:58:26.080Z,65
2017-07-10T05:58:51.570Z,65
2017-07-10T05:59:17.096Z,65
2017-07-10T05:59:42.593Z,65
2017-07-10T06:00:08.056Z,70
2017-07-10T06:00:33.527Z,70
2017-07-10T06:00:59.036Z,70
2017-07-10T06:01:24.498Z,70
2017-07-10T06:01:49.990Z,70
2017-07-10T06:02:15.463Z,70
2017-07-10T06:02:40.935Z,70
2017-07-10T06:03:06.391Z,70
2017-07-10T06:03:31.906Z,70
2017-07-10T06:03:57.369Z,75
2017-07-10T06:04:22.819Z,75
2017-07-10T06:04:48.274Z,75
2017-07-10T06:05:13.741Z,75
2017-07-10T06:05:39.206Z,75
2017-07-10T06:06:04.659Z,75
2017-07-10T06:06:30.112Z,75
2017-07-10T06:07:53.615Z,80
2017-07-10T06:08:19.095Z,80
2017-07-10T06:08:44.578Z,80
2017-07-10T06:09:10.036Z,80
2017-07-10T06:09:35.506Z,80
2017-07-10T06:10:00.999Z,80
2017-07-10T06:10:26.483Z,80
2017-07-10T06:10:51.951Z,80
2017-07-10T06:11:17.446Z,80
2017-07-10T06:11:42.913Z,80
2017-07-10T06:12:08.394Z,80
2017-07-10T06:12:33.863Z,80
2017-07-10T06:12:59.314Z,80
2017-07-10T06:13:24.793Z,75
2017-07-10T06:13:50.261Z,75
2017-07-10T06:14:15.711Z,75
2017-07-10T06:14:41.235Z,75
2017-07-10T06:15:06.716Z,75
2017-07-10T06:15:32.184Z,75
2017-07-10T06:15:57.675Z,75
2017-07-10T06:16:23.167Z,75
2017-07-10T06:16:48.640Z,75
2017-07-10T06:17:14.141Z,75
2017-07-10T06:17:39.585Z,75
2017-07-10T06:18:05.088Z,75
2017-07-10T06:18:30.548Z,75
2017-07-10T06:18:56.020Z,75
2017-07-10T06:19:21.498Z,75
2017-07-10T06:19:46.957Z,75
2017-07-10T06:20:12.441Z,75
2017-07-10T06:20:37.908Z,75
2017-07-10T06:21:03.380Z,75
2017-07-10T06:21:28.869Z,75
2017-07-10T06:21:54.337Z,75
2017-07-10T06:22:19.808Z,75
2017-07-10T06:22:45.270Z,75
2017-07-10T06:23:10.745Z,75
2017-07-10T06:23:36.210Z,75
2017-07-10T06:24:01.671Z,75
2017-07-10T06:24:27.154Z,75
2017-07-10T06:24:52.630Z,70
2017-07-10T06:25:18.098Z,70
2017-07-10T06:25:43.604Z,70
2017-07-10T06:26:09.080Z,70
2017-07-10T06:26:34.530Z,70
2017-07-10T06:26:59.986Z,70
2017-07-10T06:27:25.460Z,70
2017-07-10T06:27:50.916Z,70
2017-07-10T06:28:16.371Z,70
2017-07-10T06:28:41.848Z,70
2017-07-10T06:29:07.306Z,65
2017-07-10T06:29:32.806Z,65
2017-07-10T06:29:58.249Z,65
2017-07-10T06:30:23.757Z,65
2017-07-10T06:30:49.235Z,65
2017-07-10T06:31:14.705Z,65
2017-07-10T06:31:40.171Z,65
2017-07-10T06:32:05.648Z,65
2017-07-10T06:32:31.185Z,65
2017-07-10T06:32:56.627Z,70
2017-07-10T06:33:22.081Z,70
2017-07-10T06:33:47.588Z,70
2017-07-10T06:34:13.057Z,70
2017-07-10T06:34:38.539Z,70
2017-07-10T06:35:04.031Z,70
2017-07-10T06:35:29.519Z,75
2017-07-10T06:35:54.985Z,75
2017-07-10T06:36:20.498Z,75
2017-07-10T06:36:45.938Z,75
2017-07-10T06:37:11.395Z,75
2017-07-10T06:37:36.871Z,80
2017-07-10T06:38:02.336Z,80
2017-07-10T06:38:27.817Z,80
2017-07-10T06:38:53.313Z,85
2017-07-10T06:39:18.753Z,85
2017-07-10T06:39:44.254Z,85
2017-07-10T06:40:09.715Z,85
2017-07-10T06:40:35.187Z,85
2017-07-10T06:41:00.701Z,90
2017-07-10T06:41:26.134Z,85
2017-07-10T06:41:51.606Z,90
2017-07-10T06:42:17.051Z,95
2017-07-10T06:42:42.525Z,90
2017-07-10T06:43:07.984Z,95
2017-07-10T06:43:33.450Z,95
2017-07-10T06:43:58.931Z,95
2017-07-10T06:44:24.402Z,95
2017-07-10T06:44:49.877Z,100
2017-07-10T06:45:15.365Z,100
2017-07-10T06:45:40.838Z,100
2017-07-10T06:46:06.307Z,100
2017-07-10T06:46:31.758Z,100
2017-07-10T06:46:57.226Z,100
2017-07-10T06:47:22.694Z,100
2017-07-10T06:47:48.184Z,100
2017-07-10T06:48:13.678Z,100
2017-07-10T06:48:39.173Z,100
2017-07-10T06:49:04.682Z,100
2017-07-10T06:49:30.163Z,100
2017-07-10T06:49:55.614Z,105
2017-07-10T06:50:21.106Z,105
2017-07-10T06:50:46.567Z,105
2017-07-10T06:51:12.025Z,105
2017-07-10T06:51:37.507Z,105
2017-07-10T06:52:02.945Z,105
2017-07-10T06:52:28.445Z,105
2017-07-10T06:52:53.904Z,105
2017-07-10T06:53:19.393Z,105
2017-07-10T06:53:44.844Z,105
2017-07-10T06:54:10.324Z,105
2017-07-10T06:54:35.787Z,105
2017-07-10T06:55:01.251Z,105
2017-07-10T06:55:26.732Z,110
2017-07-10T06:55:52.218Z,110
2017-07-10T06:56:17.704Z,115
2017-07-10T06:56:43.193Z,120
2017-07-10T06:57:08.692Z,125
2017-07-10T06:57:34.135Z,130
2017-07-10T06:57:59.627Z,135
2017-07-10T06:58:25.151Z,140
2017-07-10T06:58:50.628Z,150
2017-07-10T06:59:16.178Z,160
2017-07-10T06:59:41.651Z,165
2017-07-10T07:00:07.137Z,170
2017-07-10T07:00:32.590Z,175
2017-07-10T07:00:58.077Z,185
2017-07-10T07:01:23.499Z,190
2017-07-10T07:01:48.983Z,195
2017-07-10T07:02:14.427Z,200
2017-07-10T07:02:39.878Z,205
2017-07-10T07:03:05.324Z,205
2017-07-10T07:03:30.825Z,205
2017-07-10T07:03:56.269Z,215
2017-07-10T07:04:21.762Z,210
2017-07-10T07:04:47.239Z,210
2017-07-10T07:05:12.735Z,205
2017-07-10T07:05:38.208Z,205
2017-07-10T07:06:03.683Z,200
2017-07-10T07:06:29.158Z,195
2017-07-10T07:06:54.636Z,190
2017-07-10T07:07:20.137Z,185
2017-07-10T07:07:45.601Z,185
2017-07-10T07:08:11.092Z,185
2017-07-10T07:08:36.561Z,175
2017-07-10T07:09:02.054Z,175
2017-07-10T07:09:27.490Z,170
2017-07-10T07:09:52.938Z,165
2017-07-10T07:10:18.512Z,165
2017-07-10T07:10:43.976Z,165
2017-07-10T07:11:09.462Z,160
2017-07-10T07:11:34.930Z,160
2017-07-10T07:12:00.401Z,155
2017-07-10T07:12:25.871Z,155
2017-07-10T07:12:51.332Z,155
2017-07-10T07:13:16.788Z,155
2017-07-10T07:13:42.306Z,155
2017-07-10T07:14:07.767Z,155
2017-07-10T07:14:33.241Z,150
2017-07-10T07:14:58.726Z,150
2017-07-10T07:15:24.215Z,145
2017-07-10T07:15:49.697Z,145
2017-07-10T07:16:15.165Z,140
2017-07-10T07:16:40.627Z,140
2017-07-10T07:17:06.092Z,140
2017-07-10T07:17:31.559Z,140
2017-07-10T07:17:57.013Z,140
2017-07-10T07:18:22.503Z,140
2017-07-10T07:18:47.960Z,140
2017-07-10T07:19:13.434Z,140
2017-07-10T07:19:38.911Z,140
2017-07-10T07:20:04.339Z,140
2017-07-10T07:20:29.806Z,140
2017-07-10T07:20:55.265Z,140
2017-07-10T07:21:20.732Z,145
2017-07-10T07:21:46.175Z,145
2017-07-10T07:22:11.639Z,150
2017-07-10T07:22:37.113Z,145
2017-07-10T07:23:02.556Z,145
2017-07-10T07:23:28.044Z,145
2017-07-10T07:23:53.514Z,150
2017-07-10T07:24:18.992Z,155
2017-07-10T07:24:44.454Z,150
2017-07-10T07:25:09.938Z,150
2017-07-10T07:25:35.430Z,150
2017-07-10T07:26:00.890Z,150
2017-07-10T07:26:26.375Z,150
2017-07-10T07:26:51.834Z,145
2017-07-10T07:27:17.350Z,145
2017-07-10T07:27:42.807Z,145
2017-07-10T07:28:08.300Z,145
2017-07-10T07:28:33.753Z,140
2017-07-10T07:28:59.207Z,140
2017-07-10T07:29:24.708Z,140
2017-07-10T07:29:50.190Z,140
2017-07-10T07:30:15.642Z,135
2017-07-10T07:30:41.113Z,135
2017-07-10T07:31:06.585Z,135
2017-07-10T07:31:32.104Z,135
2017-07-10T07:31:57.556Z,130
2017-07-10T07:32:23.021Z,130
2017-07-10T07:32:48.487Z,125
2017-07-10T07:33:13.952Z,125
2017-07-10T07:33:39.431Z,120
2017-07-10T07:34:04.875Z,120
2017-07-10T07:34:30.338Z,115
2017-07-10T07:34:55.822Z,110
2017-07-10T07:35:21.299Z,105
2017-07-10T07:35:46.811Z,105
2017-07-10T07:36:12.281Z,100
2017-07-10T07:36:37.747Z,100
2017-07-10T07:37:03.213Z,95
2017-07-10T07:37:28.715Z,95
2017-07-10T07:37:54.184Z,90
2017-07-10T07:38:19.667Z,90
2017-07-10T07:38:45.135Z,90
2017-07-10T07:39:10.615Z,90
2017-07-10T07:39:36.119Z,90
2017-07-10T07:40:01.609Z,90
2017-07-10T07:40:27.059Z,90
2017-07-10T07:40:52.530Z,90
2017-07-10T07:41:18.050Z,95
2017-07-10T07:41:43.542Z,95
2017-07-10T07:42:09.001Z,95
2017-07-10T07:42:34.497Z,95
2017-07-10T07:42:59.926Z,95
2017-07-10T07:43:25.467Z,95
2017-07-10T07:43:50.886Z,95
2017-07-10T07:44:16.380Z,95
2017-07-10T07:44:41.838Z,95
2017-07-10T07:45:07.317Z,90
2017-07-10T07:45:32.771Z,90
2017-07-10T07:45:58.262Z,90
2017-07-10T07:46:23.699Z,90
2017-07-10T07:46:49.172Z,90
2017-07-10T07:47:14.629Z,90
2017-07-10T07:47:40.113Z,90
2017-07-10T07:48:05.587Z,90
2017-07-10T07:48:31.075Z,90
2017-07-10T07:48:56.558Z,90
2017-07-10T07:49:22.032Z,95
2017-07-10T07:49:47.534Z,95
2017-07-10T07:50:12.998Z,95
2017-07-10T07:50:38.438Z,95
2017-07-10T07:51:03.925Z,95
2017-07-10T07:51:29.420Z,95
2017-07-10T07:51:54.908Z,95
2017-07-10T07:52:20.407Z,95
2017-07-10T07:52:45.843Z,95
2017-07-10T07:53:11.315Z,95
2017-07-10T07:53:36.825Z,95
2017-07-10T07:54:02.318Z,95
2017-07-10T07:54:27.797Z,95
2017-07-10T07:54:53.325Z,90
2017-07-10T07:55:18.769Z,90
2017-07-10T07:55:44.245Z,90
2017-07-10T07:56:09.745Z,90
2017-07-10T07:56:35.273Z,90
2017-07-10T07:57:00.736Z,90
2017-07-10T07:57:26.226Z,90
2017-07-10T07:57:51.683Z,90
2017-07-10T07:58:17.157Z,90
2017-07-10T07:58:42.632Z,95
2017-07-10T07:59:08.109Z,95
2017-07-10T07:59:33.573Z,95
2017-07-10T07:59:59.048Z,95
2017-07-10T08:00:24.509Z,100
2017-07-10T08:00:50.005Z,100
2017-07-10T08:01:15.438Z,100
2017-07-10T08:01:40.925Z,100
2017-07-10T08:02:06.416Z,100
2017-07-10T08:02:31.931Z,100
2017-07-10T08:02:57.368Z,95
2017-07-10T08:03:22.824Z,95
2017-07-10T08:03:48.328Z,95
2017-07-10T08:04:13.798Z,95
2017-07-10T08:04:39.264Z,95
2017-07-10T08:05:04.748Z,100
2017-07-10T08:05:30.266Z,100
2017-07-10T08:05:55.726Z,100
2017-07-10T08:06:21.208Z,105
2017-07-10T08:06:46.666Z,105
2017-07-10T08:07:12.175Z,105
2017-07-10T08:07:37.687Z,110
2017-07-10T08:08:03.143Z,115
2017-07-10T08:08:28.639Z,120
2017-07-10T08:08:54.133Z,120
2017-07-10T08:09:19.627Z,125
2017-07-10T08:09:45.094Z,130
2017-07-10T08:10:10.568Z,130
2017-07-10T08:10:35.999Z,135
2017-07-10T08:11:01.501Z,135
2017-07-10T08:11:26.997Z,135
2017-07-10T08:11:52.449Z,135
2017-07-10T08:12:17.955Z,135
2017-07-10T08:12:43.403Z,135
2017-07-10T08:13:08.851Z,130
2017-07-10T08:13:34.338Z,130
2017-07-10T08:13:59.840Z,125
2017-07-10T08:14:25.294Z,125
2017-07-10T08:14:50.787Z,120
2017-07-10T08:15:16.273Z,120
2017-07-10T08:15:41.778Z,120
2017-07-10T08:16:07.280Z,120
2017-07-10T08:16:32.758Z,125
2017-07-10T08:16:58.215Z,125
2017-07-10T08:17:23.698Z,130
2017-07-10T08:17:49.178Z,125
2017-07-10T08:18:14.653Z,125
2017-07-10T08:18:40.093Z,130
2017-07-10T08:19:05.543Z,130
2017-07-10T08:19:31.016Z,130
2017-07-10T08:19:56.505Z,130
2017-07-10T08:20:21.939Z,130
2017-07-10T08:20:47.365Z,130
2017-07-10T08:21:12.847Z,130
2017-07-10T08:21:38.323Z,130
2017-07-10T08:22:03.777Z,125
2017-07-10T08:22:29.242Z,120
2017-07-10T08:22:54.710Z,115
2017-07-10T08:23:20.217Z,110
2017-07-10T08:23:45.687Z,105
2017-07-10T08:24:11.122Z,100
2017-07-10T08:24:36.600Z,100
2017-07-10T08:25:02.057Z,95
2017-07-10T08:25:27.558Z,90
2017-07-10T08:25:53.025Z,90
2017-07-10T08:26:18.477Z,90
2017-07-10T08:26:43.966Z,85
2017-07-10T08:27:09.389Z,85
2017-07-10T08:27:34.851Z,85
2017-07-10T08:28:00.330Z,85
2017-07-10T08:28:25.810Z,85
2017-07-10T08:28:51.285Z,85
2017-07-10T08:29:16.769Z,85
2017-07-10T08:29:42.241Z,85
2017-07-10T08:30:07.685Z,85
2017-07-10T08:30:33.197Z,85
2017-07-10T08:30:58.693Z,85
2017-07-10T08:31:24.165Z,90
2017-07-10T08:31:49.673Z,90
2017-07-10T08:32:15.088Z,90
2017-07-10T08:32:40.558Z,90
2017-07-10T08:33:06.045Z,90
2017-07-10T08:33:31.535Z,90
2017-07-10T08:33:56.992Z,90
2017-07-10T08:34:22.451Z,90
2017-07-10T08:34:47.932Z,90
2017-07-10T08:35:13.403Z,95
2017-07-10T08:35:38.882Z,90
2017-07-10T08:36:04.379Z,90
2017-07-10T08:36:29.862Z,95
2017-07-10T08:36:55.363Z,95
2017-07-10T08:37:20.851Z,95
2017-07-10T08:37:46.323Z,100
2017-07-10T08:38:11.799Z,100
2017-07-10T08:38:37.283Z,95
2017-07-10T08:39:02.744Z,95
2017-07-10T08:39:28.227Z,100
2017-07-10T08:39:53.719Z,105
2017-07-10T08:40:19.201Z,100
2017-07-10T08:40:44.693Z,100
2017-07-10T08:41:10.177Z,100
2017-07-10T08:41:35.645Z,100
2017-07-10T08:42:01.142Z,95
2017-07-10T08:42:26.614Z,95
2017-07-10T08:42:52.067Z,95
2017-07-10T08:43:17.530Z,95
2017-07-10T08:43:43.008Z,95
2017-07-10T08:44:08.496Z,95
2017-07-10T08:44:33.929Z,95
2017-07-10T08:44:59.412Z,95
2017-07-10T08:45:24.892Z,100
2017-07-10T08:45:50.334Z,100
2017-07-10T08:46:15.799Z,100
2017-07-10T08:46:41.265Z,100
2017-07-10T08:47:06.747Z,105
2017-07-10T08:47:32.207Z,105
2017-07-10T08:47:57.694Z,105
2017-07-10T08:48:23.186Z,110
2017-07-10T08:48:48.694Z,110
2017-07-10T08:49:14.197Z,110
2017-07-10T08:49:39.651Z,115
2017-07-10T08:50:05.135Z,115
2017-07-10T08:50:30.587Z,115
2017-07-10T08:50:56.041Z,120
2017-07-10T08:51:21.525Z,120
2017-07-10T08:51:47.002Z,120
2017-07-10T08:52:12.447Z,120
2017-07-10T08:52:37.916Z,120
2017-07-10T08:53:03.369Z,120
2017-07-10T08:53:28.859Z,120
2017-07-10T08:53:54.336Z,125
2017-07-10T08:54:19.825Z,125
2017-07-10T08:54:45.294Z,125
2017-07-10T08:55:10.808Z,130
2017-07-10T08:55:36.299Z,130
2017-07-10T08:56:01.747Z,135
2017-07-10T08:56:27.244Z,135
2017-07-10T08:56:52.720Z,140
2017-07-10T08:57:18.188Z,140
2017-07-10T08:57:43.667Z,145
2017-07-10T08:58:09.161Z,150
2017-07-10T08:58:34.655Z,155
2017-07-10T08:59:00.129Z,160
2017-07-10T08:59:25.610Z,165
2017-07-10T08:59:51.065Z,165
2017-07-10T09:00:16.573Z,170
2017-07-10T09:00:42.039Z,170
2017-07-10T09:01:07.496Z,175
2017-07-10T09:01:33.010Z,180
2017-07-10T09:01:58.482Z,180
2017-07-10T09:02:23.935Z,185
2017-07-10T09:02:49.446Z,190
2017-07-10T09:03:14.860Z,195
2017-07-10T09:03:40.320Z,200
2017-07-10T09:04:05.791Z,205
2017-07-10T09:04:31.234Z,210
2017-07-10T09:04:56.702Z,210
2017-07-10T09:05:22.165Z,215
2017-07-10T09:05:47.639Z,215
2017-07-10T09:06:13.078Z,215
2017-07-10T09:06:38.534Z,215
2017-07-10T09:07:04.000Z,215
2017-07-10T09:07:29.481Z,215
2017-07-10T09:07:54.964Z,215
2017-07-10T09:08:20.423Z,215
2017-07-10T09:08:45.912Z,210
2017-07-10T09:09:11.360Z,210
2017-07-10T09:09:36.845Z,210
2017-07-10T09:10:02.336Z,210
2017-07-10T09:10:27.845Z,210
2017-07-10T09:10:53.293Z,215
2017-07-10T09:11:18.818Z,215
2017-07-10T09:11:44.311Z,220
2017-07-10T09:12:09.813Z,220
2017-07-10T09:12:35.257Z,230
2017-07-10T09:13:00.732Z,235
2017-07-10T09:13:26.193Z,240
2017-07-10T09:13:51.681Z,245
2017-07-10T09:14:17.146Z,250
2017-07-10T09:14:42.648Z,255
2017-07-10T09:15:08.160Z,260
2017-07-10T09:15:33.630Z,260
2017-07-10T09:15:59.126Z,265
2017-07-10T09:16:24.625Z,265
2017-07-10T09:16:50.086Z,270
2017-07-10T09:17:15.534Z,270
2017-07-10T09:17:41.014Z,270
2017-07-10T09:18:06.498Z,270
2017-07-10T09:18:31.960Z,270
2017-07-10T09:18:57.421Z,270
2017-07-10T09:19:22.913Z,265
2017-07-10T09:19:48.406Z,265
2017-07-10T09:20:13.892Z,260
2017-07-10T09:20:39.356Z,260
2017-07-10T09:21:04.865Z,255
2017-07-10T09:21:30.307Z,255
2017-07-10T09:21:55.792Z,250
2017-07-10T09:22:21.280Z,250
2017-07-10T09:23:44.839Z,250
2017-07-10T09:24:10.263Z,255
2017-07-10T09:24:35.741Z,255
2017-07-10T09:25:01.256Z,260
2017-07-10T09:25:26.723Z,265
2017-07-10T09:25:52.192Z,275
2017-07-10T09:26:17.656Z,270
2017-07-10T09:26:43.157Z,280
2017-07-10T09:27:08.629Z,275
2017-07-10T09:27:34.092Z,285
2017-07-10T09:27:59.582Z,280
2017-07-10T09:28:25.022Z,285
2017-07-10T09:28:50.463Z,285
2017-07-10T09:29:15.938Z,285
2017-07-10T09:29:41.398Z,285
2017-07-10T09:30:06.872Z,285
2017-07-10T09:30:32.342Z,285
2017-07-10T09:30:57.788Z,295
2017-07-10T09:31:23.269Z,295
2017-07-10T09:31:48.736Z,290
2017-07-10T09:32:14.221Z,290
2017-07-10T09:32:39.664Z,290
2017-07-10T09:33:05.113Z,290
2017-07-10T09:33:30.585Z,285
2017-07-10T09:33:56.065Z,285
2017-07-10T09:34:21.598Z,285
2017-07-10T09:34:47.090Z,285
2017-07-10T09:35:12.595Z,285
2017-07-10T09:35:38.036Z,285
2017-07-10T09:36:03.495Z,285
2017-07-10T09:36:29.008Z,290
2017-07-10T09:36:54.473Z,290
2017-07-10T09:37:20.005Z,295
2017-07-10T09:37:45.499Z,295
2017-07-10T09:38:10.950Z,295
2017-07-10T09:38:36.393Z,295
2017-07-10T09:39:01.874Z,295
2017-07-10T09:39:27.384Z,290
2017-07-10T09:39:52.857Z,285
2017-07-10T09:40:18.305Z,285
2017-07-10T09:40:43.798Z,285
2017-07-10T09:41:09.258Z,285
2017-07-10T09:41:34.761Z,285
2017-07-10T09:42:00.225Z,285
2017-07-10T09:42:25.701Z,290
2017-07-10T09:42:51.203Z,295
2017-07-10T09:43:16.665Z,295
2017-07-10T09:43:42.126Z,295
2017-07-10T09:44:07.598Z,295
2017-07-10T09:44:33.070Z,295
2017-07-10T09:44:58.557Z,295
2017-07-10T09:45:24.024Z,295
2017-07-10T09:45:49.506Z,295
2017-07-10T09:46:15.001Z,295
2017-07-10T09:46:40.492Z,300
2017-07-10T09:47:05.965Z,300
2017-07-10T09:47:31.475Z,305
2017-07-10T09:47:56.959Z,310
2017-07-10T09:48:22.444Z,310
2017-07-10T09:48:48.002Z,310
2017-07-10T09:49:13.513Z,315
2017-07-10T09:49:39.028Z,315
2017-07-10T09:50:04.526Z,320
2017-07-10T09:50:30.014Z,320
2017-07-10T09:50:55.578Z,325
2017-07-10T09:51:20.977Z,325
2017-07-10T09:51:46.482Z,330
2017-07-10T09:52:11.917Z,335
2017-07-10T09:52:37.394Z,335
2017-07-10T09:53:02.884Z,340
2017-07-10T09:53:28.363Z,345
2017-07-10T09:53:53.902Z,345
2017-07-10T09:54:19.384Z,350
2017-07-10T09:54:44.849Z,350
2017-07-10T09:55:10.340Z,355
2017-07-10T09:55:35.860Z,355
2017-07-10T09:56:01.337Z,355
2017-07-10T09:56:26.812Z,355
2017-07-10T09:56:52.305Z,360
2017-07-10T09:57:17.772Z,360
2017-07-10T09:57:43.286Z,350
2017-07-10T09:58:08.727Z,350
2017-07-10T09:58:34.199Z,350
2017-07-10T09:58:59.645Z,355
2017-07-10T09:59:25.191Z,360
2017-07-10T09:59:50.596Z,365
2017-07-10T10:00:16.048Z,365
2017-07-10T10:00:41.489Z,360
2017-07-10T10:01:07.014Z,360
2017-07-10T10:01:32.462Z,365
2017-07-10T10:01:58.004Z,365
2017-07-10T10:02:23.489Z,360
2017-07-10T10:02:48.941Z,365
2017-07-10T10:03:14.417Z,375
2017-07-10T10:03:39.924Z,380
2017-07-10T10:04:05.384Z,375
2017-07-10T10:04:30.883Z,365
2017-07-10T10:04:56.347Z,360
2017-07-10T10:05:21.813Z,360
2017-07-10T10:05:47.325Z,355
2017-07-10T10:06:12.801Z,350
2017-07-10T10:06:38.255Z,345
2017-07-10T10:07:03.720Z,340
2017-07-10T10:07:29.188Z,335
2017-07-10T10:07:54.675Z,340
2017-07-10T10:08:20.186Z,340
2017-07-10T10:08:45.675Z,355
2017-07-10T10:09:11.194Z,365
2017-07-10T10:09:36.666Z,375
2017-07-10T10:10:02.165Z,375
2017-07-10T10:10:27.686Z,365
2017-07-10T10:10:53.155Z,365
2017-07-10T10:11:18.620Z,360
2017-07-10T10:11:44.092Z,340
2017-07-10T10:12:09.570Z,330
2017-07-10T10:12:35.004Z,315
2017-07-10T10:13:00.483Z,295
2017-07-10T10:13:25.940Z,290
2017-07-10T10:13:51.404Z,285
2017-07-10T10:14:16.878Z,250
2017-07-10T10:14:42.362Z,240
2017-07-10T10:15:07.844Z,225
2017-07-10T10:15:33.309Z,235
2017-07-10T10:15:58.796Z,245
2017-07-10T10:16:24.283Z,255
2017-07-10T10:16:49.826Z,260
2017-07-10T10:17:15.294Z,250
2017-07-10T10:17:40.764Z,250
2017-07-10T10:18:06.212Z,250
2017-07-10T10:18:31.694Z,250
2017-07-10T10:18:57.166Z,250
2017-07-10T10:19:22.619Z,255
2017-07-10T10:19:48.175Z,255
2017-07-10T10:20:13.614Z,255
2017-07-10T10:20:39.105Z,260
2017-07-10T10:21:04.572Z,260
2017-07-10T10:21:30.092Z,235
2017-07-10T10:21:55.565Z,225
2017-07-10T10:22:21.048Z,210
2017-07-10T10:22:46.567Z,200
2017-07-10T10:23:12.065Z,205
2017-07-10T10:23:37.517Z,210
2017-07-10T10:24:03.003Z,225
2017-07-10T10:24:28.483Z,235
2017-07-10T10:24:53.952Z,260
2017-07-10T10:25:19.408Z,275
2017-07-10T10:25:44.849Z,280
2017-07-10T10:26:10.326Z,290
2017-07-10T10:26:35.770Z,305
2017-07-10T10:27:01.257Z,320
2017-07-10T10:27:26.806Z,330
2017-07-10T10:27:52.363Z,330
2017-07-10T10:28:17.852Z,355
2017-07-10T10:28:43.343Z,375
2017-07-10T10:29:08.844Z,395
2017-07-10T10:29:34.336Z,420
2017-07-10T10:29:59.783Z,425
2017-07-10T10:30:25.280Z,415
2017-07-10T10:30:50.774Z,430
2017-07-10T10:31:16.239Z,425
2017-07-10T10:31:41.722Z,440
2017-07-10T10:32:07.217Z,460
2017-07-10T10:32:32.669Z,450
2017-07-10T10:32:58.144Z,480
2017-07-10T10:33:23.600Z,455
2017-07-10T10:33:49.099Z,440
2017-07-10T10:34:14.593Z,425
2017-07-10T10:34:40.067Z,415
2017-07-10T10:35:05.518Z,415
2017-07-10T10:35:30.978Z,410
2017-07-10T10:35:56.440Z,405
2017-07-10T10:36:21.973Z,405
2017-07-10T10:36:47.467Z,400
2017-07-10T10:37:12.920Z,400
2017-07-10T10:37:38.406Z,395
2017-07-10T10:38:03.922Z,390
2017-07-10T10:38:29.439Z,390
2017-07-10T10:38:54.902Z,385
2017-07-10T10:39:20.397Z,380
2017-07-10T10:39:45.867Z,375
2017-07-10T10:40:11.327Z,365
2017-07-10T10:40:36.785Z,355
2017-07-10T10:41:02.257Z,345
2017-07-10T10:41:27.721Z,330
2017-07-10T10:41:53.175Z,320
2017-07-10T10:42:18.686Z,315
2017-07-10T10:42:44.169Z,310
2017-07-10T10:43:09.657Z,305
2017-07-10T10:43:35.130Z,305
2017-07-10T10:44:00.607Z,305
2017-07-10T10:44:26.057Z,305
2017-07-10T10:44:51.557Z,300
2017-07-10T10:45:17.027Z,295
2017-07-10T10:45:42.506Z,295
2017-07-10T10:46:07.993Z,290
2017-07-10T10:46:33.492Z,290
2017-07-10T10:46:58.983Z,295
2017-07-10T10:47:24.472Z,290
2017-07-10T10:47:49.937Z,290
2017-07-10T10:48:15.424Z,290
2017-07-10T10:48:40.900Z,290
2017-07-10T10:49:06.412Z,285
2017-07-10T10:49:31.897Z,285
2017-07-10T10:49:57.351Z,285
2017-07-10T10:50:22.839Z,285
2017-07-10T10:50:48.303Z,285
2017-07-10T10:51:13.797Z,285
2017-07-10T10:51:39.260Z,285
2017-07-10T10:52:04.735Z,280
2017-07-10T10:52:30.213Z,280
2017-07-10T10:52:55.756Z,275
2017-07-10T10:53:21.223Z,270
2017-07-10T10:53:46.717Z,270
2017-07-10T10:54:12.198Z,265
2017-07-10T10:54:37.642Z,265
2017-07-10T10:55:03.123Z,265
2017-07-10T10:55:28.590Z,265
2017-07-10T10:55:54.080Z,265
2017-07-10T10:56:19.588Z,265
2017-07-10T10:56:45.078Z,270
2017-07-10T10:57:10.558Z,270
2017-07-10T10:57:36.034Z,275
2017-07-10T10:58:01.540Z,275
2017-07-10T10:58:27.026Z,280
2017-07-10T10:58:52.490Z,280
2017-07-10T10:59:17.967Z,280
2017-07-10T10:59:43.433Z,280
2017-07-10T11:00:08.934Z,280
2017-07-10T11:00:34.416Z,280
2017-07-10T11:00:59.887Z,275
2017-07-10T11:01:25.358Z,275
2017-07-10T11:01:50.847Z,265
2017-07-10T11:02:16.345Z,250
2017-07-10T11:02:41.821Z,240
2017-07-10T11:03:07.317Z,230
2017-07-10T11:03:32.796Z,230
2017-07-10T11:03:58.266Z,225
2017-07-10T11:04:23.731Z,235
2017-07-10T11:04:49.268Z,235
2017-07-10T11:05:14.762Z,240
2017-07-10T11:05:40.220Z,245
2017-07-10T11:06:05.694Z,250
2017-07-10T11:06:31.189Z,255
2017-07-10T11:06:56.660Z,260
2017-07-10T11:07:22.164Z,270
2017-07-10T11:07:47.682Z,275
2017-07-10T11:09:11.144Z,285
2017-07-10T11:09:36.619Z,280
2017-07-10T11:10:02.096Z,275
2017-07-10T11:10:27.561Z,255
2017-07-10T11:10:53.057Z,245
2017-07-10T11:11:18.551Z,220
2017-07-10T11:11:44.047Z,210
2017-07-10T11:12:09.538Z,205
2017-07-10T11:12:35.044Z,200
2017-07-10T11:13:00.539Z,195
2017-07-10T11:13:26.009Z,195
2017-07-10T11:13:51.484Z,195
2017-07-10T11:14:16.994Z,200
2017-07-10T11:14:42.479Z,210
2017-07-10T11:15:07.950Z,205
2017-07-10T11:15:33.425Z,205
2017-07-10T11:15:58.914Z,200
2017-07-10T11:16:24.396Z,205
2017-07-10T11:16:49.864Z,205
2017-07-10T11:17:15.308Z,205
2017-07-10T11:17:40.787Z,210
2017-07-10T11:18:06.247Z,210
2017-07-10T11:18:31.706Z,210
2017-07-10T11:18:57.274Z,220
2017-07-10T11:19:22.722Z,215
2017-07-10T11:19:48.185Z,220
2017-07-10T11:20:13.686Z,225
2017-07-10T11:20:39.169Z,230
2017-07-10T11:21:04.646Z,235
2017-07-10T11:21:30.147Z,240
2017-07-10T11:21:55.591Z,245
2017-07-10T11:22:21.068Z,250
2017-07-10T11:22:46.510Z,255
2017-07-10T11:23:12.047Z,255
2017-07-10T11:23:37.550Z,255
2017-07-10T11:24:03.024Z,260
2017-07-10T11:24:28.489Z,265
2017-07-10T11:24:53.960Z,275
2017-07-10T11:25:19.438Z,295
2017-07-10T11:25:44.891Z,305
2017-07-10T11:26:10.370Z,315
2017-07-10T11:26:35.897Z,320
2017-07-10T11:27:01.340Z,330
2017-07-10T11:27:26.820Z,335
2017-07-10T11:27:52.276Z,345
2017-07-10T11:28:17.770Z,350
2017-07-10T11:28:43.218Z,350
2017-07-10T11:29:08.657Z,355
2017-07-10T11:29:34.135Z,355